sensor_id;sensor_type;location;lat;lon;timestamp;P1;durP1;ratioP1;P2;durP2;ratioP2
19521;SDS011;9905;52.126;5.596;2022-11-15T00:00:46;32.38;;;18.90;;
19521;SDS011;9905;52.126;5.596;2022-11-15T00:03:13;30.67;;;19.10;;
19521;SDS011;9905;52.126;5.596;2022-11-15T00:05:40;27.55;;;18.90;;
19521;SDS011;9905;52.126;5.596;2022-11-15T00:08:07;30.17;;;20.13;;
19521;SDS011;9905;52.126;5.596;2022-11-15T00:10:36;30.85;;;19.55;;
19521;SDS011;9905;52.126;5.596;2022-11-15T00:13:06;27.70;;;19.55;;
19521;SDS011;9905;52.126;5.596;2022-11-15T00:15:34;27.75;;;19.35;;
19521;SDS011;9905;52.126;5.596;2022-11-15T00:18:02;34.20;;;21.25;;
19521;SDS011;9905;52.126;5.596;2022-11-15T00:20:28;30.27;;;19.55;;
19521;SDS011;9905;52.126;5.596;2022-11-15T00:22:55;31.55;;;20.17;;
19521;SDS011;9905;52.126;5.596;2022-11-15T00:25:22;39.65;;;21.48;;
19521;SDS011;9905;52.126;5.596;2022-11-15T00:27:50;38.67;;;22.15;;
19521;SDS011;9905;52.126;5.596;2022-11-15T00:30:21;31.60;;;19.55;;
19521;SDS011;9905;52.126;5.596;2022-11-15T00:32:48;34.13;;;20.58;;
19521;SDS011;9905;52.126;5.596;2022-11-15T00:35:15;36.78;;;21.70;;
19521;SDS011;9905;52.126;5.596;2022-11-15T00:37:42;40.70;;;22.08;;
19521;SDS011;9905;52.126;5.596;2022-11-15T00:40:09;38.65;;;21.17;;
19521;SDS011;9905;52.126;5.596;2022-11-15T00:42:37;46.40;;;22.45;;
19521;SDS011;9905;52.126;5.596;2022-11-15T00:45:06;40.85;;;23.08;;
19521;SDS011;9905;52.126;5.596;2022-11-15T00:47:34;45.05;;;21.88;;
19521;SDS011;9905;52.126;5.596;2022-11-15T00:50:00;41.47;;;23.00;;
19521;SDS011;9905;52.126;5.596;2022-11-15T00:52:27;38.70;;;22.98;;
19521;SDS011;9905;52.126;5.596;2022-11-15T00:54:54;34.95;;;22.27;;
19521;SDS011;9905;52.126;5.596;2022-11-15T00:57:20;40.85;;;23.42;;
19521;SDS011;9905;52.126;5.596;2022-11-15T00:59:47;35.67;;;23.00;;
19521;SDS011;9905;52.126;5.596;2022-11-15T01:02:15;43.08;;;23.52;;
19521;SDS011;9905;52.126;5.596;2022-11-15T01:04:42;39.22;;;23.35;;
19521;SDS011;9905;52.126;5.596;2022-11-15T01:07:08;44.97;;;24.23;;
19521;SDS011;9905;52.126;5.596;2022-11-15T01:09:35;34.85;;;23.73;;
19521;SDS011;9905;52.126;5.596;2022-11-15T01:12:02;32.50;;;23.15;;
19521;SDS011;9905;52.126;5.596;2022-11-15T01:14:29;34.58;;;22.23;;
19521;SDS011;9905;52.126;5.596;2022-11-15T01:16:56;39.95;;;23.80;;
19521;SDS011;9905;52.126;5.596;2022-11-15T01:19:24;31.83;;;23.27;;
19521;SDS011;9905;52.126;5.596;2022-11-15T01:21:51;34.55;;;21.83;;
19521;SDS011;9905;52.126;5.596;2022-11-15T01:24:17;30.48;;;23.15;;
19521;SDS011;9905;52.126;5.596;2022-11-15T01:26:44;28.02;;;21.00;;
19521;SDS011;9905;52.126;5.596;2022-11-15T01:29:11;40.65;;;23.10;;
19521;SDS011;9905;52.126;5.596;2022-11-15T01:31:38;30.60;;;22.40;;
19521;SDS011;9905;52.126;5.596;2022-11-15T01:34:04;35.28;;;23.77;;
19521;SDS011;9905;52.126;5.596;2022-11-15T01:36:32;30.13;;;22.65;;
19521;SDS011;9905;52.126;5.596;2022-11-15T01:38:59;37.70;;;23.63;;
19521;SDS011;9905;52.126;5.596;2022-11-15T01:41:26;28.80;;;22.05;;
19521;SDS011;9905;52.126;5.596;2022-11-15T01:43:55;35.83;;;23.55;;
19521;SDS011;9905;52.126;5.596;2022-11-15T01:46:25;37.22;;;24.90;;
19521;SDS011;9905;52.126;5.596;2022-11-15T01:48:56;29.38;;;23.23;;
19521;SDS011;9905;52.126;5.596;2022-11-15T01:51:26;32.28;;;22.92;;
19521;SDS011;9905;52.126;5.596;2022-11-15T01:53:58;28.38;;;23.02;;
19521;SDS011;9905;52.126;5.596;2022-11-15T01:56:30;32.10;;;23.35;;
19521;SDS011;9905;52.126;5.596;2022-11-15T01:59:03;31.58;;;23.25;;
19521;SDS011;9905;52.126;5.596;2022-11-15T02:01:31;43.30;;;24.17;;
19521;SDS011;9905;52.126;5.596;2022-11-15T02:04:00;31.92;;;23.98;;
19521;SDS011;9905;52.126;5.596;2022-11-15T02:06:31;35.85;;;24.17;;
19521;SDS011;9905;52.126;5.596;2022-11-15T02:09:00;33.10;;;24.33;;
19521;SDS011;9905;52.126;5.596;2022-11-15T02:11:27;31.85;;;23.48;;
19521;SDS011;9905;52.126;5.596;2022-11-15T02:13:54;32.83;;;23.27;;
19521;SDS011;9905;52.126;5.596;2022-11-15T02:16:24;35.53;;;24.55;;
19521;SDS011;9905;52.126;5.596;2022-11-15T02:19:00;30.35;;;23.55;;
19521;SDS011;9905;52.126;5.596;2022-11-15T02:21:35;35.17;;;24.73;;
19521;SDS011;9905;52.126;5.596;2022-11-15T02:24:15;31.77;;;24.58;;
19521;SDS011;9905;52.126;5.596;2022-11-15T02:30:30;32.20;;;24.45;;
19521;SDS011;9905;52.126;5.596;2022-11-15T02:33:06;30.63;;;23.98;;
19521;SDS011;9905;52.126;5.596;2022-11-15T02:35:43;33.67;;;25.40;;
19521;SDS011;9905;52.126;5.596;2022-11-15T02:38:20;34.90;;;26.35;;
19521;SDS011;9905;52.126;5.596;2022-11-15T02:40:53;30.40;;;24.85;;
19521;SDS011;9905;52.126;5.596;2022-11-15T02:43:27;37.45;;;25.88;;
19521;SDS011;9905;52.126;5.596;2022-11-15T02:46:16;28.88;;;24.33;;
19521;SDS011;9905;52.126;5.596;2022-11-15T02:49:08;38.67;;;25.05;;
19521;SDS011;9905;52.126;5.596;2022-11-15T02:51:36;31.20;;;24.38;;
19521;SDS011;9905;52.126;5.596;2022-11-15T02:54:03;30.95;;;26.45;;
19521;SDS011;9905;52.126;5.596;2022-11-15T02:56:30;28.80;;;24.35;;
19521;SDS011;9905;52.126;5.596;2022-11-15T02:59:00;30.48;;;25.58;;
19521;SDS011;9905;52.126;5.596;2022-11-15T03:01:42;29.48;;;24.70;;
19521;SDS011;9905;52.126;5.596;2022-11-15T03:04:19;29.02;;;24.20;;
19521;SDS011;9905;52.126;5.596;2022-11-15T03:06:57;33.80;;;24.77;;
19521;SDS011;9905;52.126;5.596;2022-11-15T03:09:30;28.65;;;25.50;;
19521;SDS011;9905;52.126;5.596;2022-11-15T03:12:03;33.03;;;25.10;;
19521;SDS011;9905;52.126;5.596;2022-11-15T03:14:34;33.42;;;25.98;;
19521;SDS011;9905;52.126;5.596;2022-11-15T03:17:07;31.67;;;25.35;;
19521;SDS011;9905;52.126;5.596;2022-11-15T03:19:43;29.45;;;26.27;;
19521;SDS011;9905;52.126;5.596;2022-11-15T03:22:11;30.40;;;25.60;;
19521;SDS011;9905;52.126;5.596;2022-11-15T03:24:41;35.20;;;25.73;;
19521;SDS011;9905;52.126;5.596;2022-11-15T03:27:12;28.73;;;24.55;;
19521;SDS011;9905;52.126;5.596;2022-11-15T03:29:43;29.58;;;25.80;;
19521;SDS011;9905;52.126;5.596;2022-11-15T03:32:13;28.48;;;25.42;;
19521;SDS011;9905;52.126;5.596;2022-11-15T03:34:46;33.05;;;25.63;;
19521;SDS011;9905;52.126;5.596;2022-11-15T03:37:16;32.40;;;26.95;;
19521;SDS011;9905;52.126;5.596;2022-11-15T03:39:46;29.10;;;26.00;;
19521;SDS011;9905;52.126;5.596;2022-11-15T03:42:16;28.90;;;25.75;;
19521;SDS011;9905;52.126;5.596;2022-11-15T03:44:50;33.60;;;26.67;;
19521;SDS011;9905;52.126;5.596;2022-11-15T03:47:23;29.83;;;26.33;;
19521;SDS011;9905;52.126;5.596;2022-11-15T03:49:55;30.08;;;26.80;;
19521;SDS011;9905;52.126;5.596;2022-11-15T03:52:25;28.70;;;25.55;;
19521;SDS011;9905;52.126;5.596;2022-11-15T03:54:53;28.30;;;25.27;;
19521;SDS011;9905;52.126;5.596;2022-11-15T03:57:22;31.48;;;25.23;;
19521;SDS011;9905;52.126;5.596;2022-11-15T03:59:48;30.23;;;26.90;;
19521;SDS011;9905;52.126;5.596;2022-11-15T04:02:16;30.08;;;26.27;;
19521;SDS011;9905;52.126;5.596;2022-11-15T04:04:44;30.63;;;27.25;;
19521;SDS011;9905;52.126;5.596;2022-11-15T04:07:11;32.30;;;27.70;;
19521;SDS011;9905;52.126;5.596;2022-11-15T04:09:37;31.08;;;27.23;;
19521;SDS011;9905;52.126;5.596;2022-11-15T04:12:24;29.30;;;26.00;;
19521;SDS011;9905;52.126;5.596;2022-11-15T04:14:56;32.17;;;26.52;;
19521;SDS011;9905;52.126;5.596;2022-11-15T04:17:33;28.67;;;25.77;;
19521;SDS011;9905;52.126;5.596;2022-11-15T04:20:07;32.85;;;26.73;;
19521;SDS011;9905;52.126;5.596;2022-11-15T04:22:54;29.67;;;26.60;;
19521;SDS011;9905;52.126;5.596;2022-11-15T04:25:39;30.33;;;26.77;;
19521;SDS011;9905;52.126;5.596;2022-11-15T04:28:06;33.15;;;27.48;;
19521;SDS011;9905;52.126;5.596;2022-11-15T04:30:32;31.88;;;26.67;;
19521;SDS011;9905;52.126;5.596;2022-11-15T04:32:59;31.00;;;26.77;;
19521;SDS011;9905;52.126;5.596;2022-11-15T04:35:27;37.65;;;27.92;;
19521;SDS011;9905;52.126;5.596;2022-11-15T04:37:56;34.72;;;27.35;;
19521;SDS011;9905;52.126;5.596;2022-11-15T04:40:22;36.55;;;27.98;;
19521;SDS011;9905;52.126;5.596;2022-11-15T04:42:49;33.97;;;27.80;;
19521;SDS011;9905;52.126;5.596;2022-11-15T04:45:15;30.08;;;26.90;;
19521;SDS011;9905;52.126;5.596;2022-11-15T04:47:43;29.60;;;26.50;;
19521;SDS011;9905;52.126;5.596;2022-11-15T04:50:10;29.83;;;26.67;;
19521;SDS011;9905;52.126;5.596;2022-11-15T04:52:39;30.88;;;26.27;;
19521;SDS011;9905;52.126;5.596;2022-11-15T04:55:07;29.23;;;26.23;;
19521;SDS011;9905;52.126;5.596;2022-11-15T04:57:34;31.67;;;27.08;;
19521;SDS011;9905;52.126;5.596;2022-11-15T05:00:01;29.52;;;26.17;;
19521;SDS011;9905;52.126;5.596;2022-11-15T05:02:29;34.22;;;28.35;;
19521;SDS011;9905;52.126;5.596;2022-11-15T05:05:16;30.88;;;26.02;;
19521;SDS011;9905;52.126;5.596;2022-11-15T05:07:43;31.17;;;26.27;;
19521;SDS011;9905;52.126;5.596;2022-11-15T05:10:09;30.80;;;27.80;;
19521;SDS011;9905;52.126;5.596;2022-11-15T05:12:36;29.23;;;25.30;;
19521;SDS011;9905;52.126;5.596;2022-11-15T05:15:03;31.90;;;26.58;;
19521;SDS011;9905;52.126;5.596;2022-11-15T05:17:31;31.95;;;27.35;;
19521;SDS011;9905;52.126;5.596;2022-11-15T05:19:57;29.60;;;26.58;;
19521;SDS011;9905;52.126;5.596;2022-11-15T05:22:24;31.17;;;27.92;;
19521;SDS011;9905;52.126;5.596;2022-11-15T05:24:52;31.38;;;28.08;;
19521;SDS011;9905;52.126;5.596;2022-11-15T05:27:19;30.40;;;27.13;;
19521;SDS011;9905;52.126;5.596;2022-11-15T05:29:46;29.63;;;26.75;;
19521;SDS011;9905;52.126;5.596;2022-11-15T05:32:12;30.92;;;27.05;;
19521;SDS011;9905;52.126;5.596;2022-11-15T05:34:39;29.88;;;26.90;;
19521;SDS011;9905;52.126;5.596;2022-11-15T05:37:06;29.00;;;26.45;;
19521;SDS011;9905;52.126;5.596;2022-11-15T05:39:33;32.13;;;26.98;;
19521;SDS011;9905;52.126;5.596;2022-11-15T05:42:02;29.77;;;26.67;;
19521;SDS011;9905;52.126;5.596;2022-11-15T05:44:33;30.50;;;27.38;;
19521;SDS011;9905;52.126;5.596;2022-11-15T05:47:02;30.20;;;27.52;;
19521;SDS011;9905;52.126;5.596;2022-11-15T05:49:31;35.00;;;27.85;;
19521;SDS011;9905;52.126;5.596;2022-11-15T05:52:02;31.52;;;28.10;;
19521;SDS011;9905;52.126;5.596;2022-11-15T05:54:31;30.20;;;27.00;;
19521;SDS011;9905;52.126;5.596;2022-11-15T05:56:59;29.73;;;26.88;;
19521;SDS011;9905;52.126;5.596;2022-11-15T05:59:27;30.40;;;27.40;;
19521;SDS011;9905;52.126;5.596;2022-11-15T06:01:55;30.35;;;27.20;;
19521;SDS011;9905;52.126;5.596;2022-11-15T06:04:22;29.55;;;26.50;;
19521;SDS011;9905;52.126;5.596;2022-11-15T06:06:48;31.95;;;27.88;;
19521;SDS011;9905;52.126;5.596;2022-11-15T06:09:15;29.70;;;26.75;;
19521;SDS011;9905;52.126;5.596;2022-11-15T06:11:42;29.48;;;26.67;;
19521;SDS011;9905;52.126;5.596;2022-11-15T06:14:09;30.23;;;27.10;;
19521;SDS011;9905;52.126;5.596;2022-11-15T06:16:37;29.88;;;26.73;;
19521;SDS011;9905;52.126;5.596;2022-11-15T06:19:05;31.30;;;27.90;;
19521;SDS011;9905;52.126;5.596;2022-11-15T06:21:32;31.95;;;27.15;;
19521;SDS011;9905;52.126;5.596;2022-11-15T06:23:59;30.75;;;27.55;;
19521;SDS011;9905;52.126;5.596;2022-11-15T06:26:26;30.88;;;27.10;;
19521;SDS011;9905;52.126;5.596;2022-11-15T06:28:52;31.33;;;27.17;;
19521;SDS011;9905;52.126;5.596;2022-11-15T06:31:19;31.70;;;28.52;;
19521;SDS011;9905;52.126;5.596;2022-11-15T06:33:47;31.40;;;28.30;;
19521;SDS011;9905;52.126;5.596;2022-11-15T06:36:14;31.08;;;27.48;;
19521;SDS011;9905;52.126;5.596;2022-11-15T06:38:42;33.63;;;27.67;;
19521;SDS011;9905;52.126;5.596;2022-11-15T06:41:09;39.30;;;28.02;;
19521;SDS011;9905;52.126;5.596;2022-11-15T06:43:37;31.88;;;28.42;;
19521;SDS011;9905;52.126;5.596;2022-11-15T06:46:04;31.42;;;28.15;;
19521;SDS011;9905;52.126;5.596;2022-11-15T06:48:32;32.28;;;28.92;;
19521;SDS011;9905;52.126;5.596;2022-11-15T06:51:01;30.38;;;27.25;;
19521;SDS011;9905;52.126;5.596;2022-11-15T06:53:30;30.50;;;27.67;;
19521;SDS011;9905;52.126;5.596;2022-11-15T06:55:58;30.95;;;27.77;;
19521;SDS011;9905;52.126;5.596;2022-11-15T06:58:26;33.33;;;29.13;;
19521;SDS011;9905;52.126;5.596;2022-11-15T07:00:53;31.05;;;27.95;;
19521;SDS011;9905;52.126;5.596;2022-11-15T07:03:20;31.20;;;28.10;;
19521;SDS011;9905;52.126;5.596;2022-11-15T07:05:50;30.45;;;27.52;;
19521;SDS011;9905;52.126;5.596;2022-11-15T07:08:20;32.40;;;29.02;;
19521;SDS011;9905;52.126;5.596;2022-11-15T07:10:47;28.90;;;26.20;;
19521;SDS011;9905;52.126;5.596;2022-11-15T07:13:14;29.52;;;26.75;;
19521;SDS011;9905;52.126;5.596;2022-11-15T07:15:41;31.65;;;28.40;;
19521;SDS011;9905;52.126;5.596;2022-11-15T07:18:07;31.05;;;27.95;;
19521;SDS011;9905;52.126;5.596;2022-11-15T07:20:34;30.13;;;27.10;;
19521;SDS011;9905;52.126;5.596;2022-11-15T07:23:01;32.10;;;28.20;;
19521;SDS011;9905;52.126;5.596;2022-11-15T07:25:30;31.70;;;28.80;;
19521;SDS011;9905;52.126;5.596;2022-11-15T07:27:57;33.72;;;28.50;;
19521;SDS011;9905;52.126;5.596;2022-11-15T07:30:25;30.98;;;27.60;;
19521;SDS011;9905;52.126;5.596;2022-11-15T07:32:53;31.20;;;27.83;;
19521;SDS011;9905;52.126;5.596;2022-11-15T07:35:20;29.63;;;26.63;;
19521;SDS011;9905;52.126;5.596;2022-11-15T07:37:52;31.15;;;28.15;;
19521;SDS011;9905;52.126;5.596;2022-11-15T07:40:20;31.45;;;28.40;;
19521;SDS011;9905;52.126;5.596;2022-11-15T07:42:48;33.20;;;27.98;;
19521;SDS011;9905;52.126;5.596;2022-11-15T07:45:22;30.83;;;27.58;;
19521;SDS011;9905;52.126;5.596;2022-11-15T07:47:51;32.72;;;29.15;;
19521;SDS011;9905;52.126;5.596;2022-11-15T07:50:18;30.35;;;27.65;;
19521;SDS011;9905;52.126;5.596;2022-11-15T07:52:46;30.25;;;27.27;;
19521;SDS011;9905;52.126;5.596;2022-11-15T07:55:13;31.08;;;28.13;;
19521;SDS011;9905;52.126;5.596;2022-11-15T07:57:40;31.65;;;28.52;;
19521;SDS011;9905;52.126;5.596;2022-11-15T08:00:08;29.42;;;26.48;;
19521;SDS011;9905;52.126;5.596;2022-11-15T08:02:36;30.20;;;27.40;;
19521;SDS011;9905;52.126;5.596;2022-11-15T08:05:03;30.65;;;27.67;;
19521;SDS011;9905;52.126;5.596;2022-11-15T08:07:30;29.63;;;26.65;;
19521;SDS011;9905;52.126;5.596;2022-11-15T08:09:57;28.95;;;26.42;;
19521;SDS011;9905;52.126;5.596;2022-11-15T08:12:26;29.70;;;26.63;;
19521;SDS011;9905;52.126;5.596;2022-11-15T08:14:53;29.25;;;26.58;;
19521;SDS011;9905;52.126;5.596;2022-11-15T08:17:21;28.35;;;25.55;;
19521;SDS011;9905;52.126;5.596;2022-11-15T08:19:48;29.20;;;26.67;;
19521;SDS011;9905;52.126;5.596;2022-11-15T08:22:15;30.10;;;27.10;;
19521;SDS011;9905;52.126;5.596;2022-11-15T08:24:42;28.00;;;25.58;;
19521;SDS011;9905;52.126;5.596;2022-11-15T08:27:10;28.30;;;25.52;;
19521;SDS011;9905;52.126;5.596;2022-11-15T08:29:41;29.38;;;26.38;;
19521;SDS011;9905;52.126;5.596;2022-11-15T08:32:08;28.77;;;25.73;;
19521;SDS011;9905;52.126;5.596;2022-11-15T08:34:36;28.00;;;25.35;;
19521;SDS011;9905;52.126;5.596;2022-11-15T08:37:03;27.13;;;24.83;;
19521;SDS011;9905;52.126;5.596;2022-11-15T08:39:30;27.35;;;24.65;;
19521;SDS011;9905;52.126;5.596;2022-11-15T08:41:56;27.48;;;24.83;;
19521;SDS011;9905;52.126;5.596;2022-11-15T08:44:23;27.02;;;24.50;;
19521;SDS011;9905;52.126;5.596;2022-11-15T08:46:50;28.08;;;25.40;;
19521;SDS011;9905;52.126;5.596;2022-11-15T08:49:17;26.85;;;24.08;;
19521;SDS011;9905;52.126;5.596;2022-11-15T08:51:45;26.27;;;23.98;;
19521;SDS011;9905;52.126;5.596;2022-11-15T08:54:12;25.60;;;23.30;;
19521;SDS011;9905;52.126;5.596;2022-11-15T08:56:39;25.30;;;22.70;;
19521;SDS011;9905;52.126;5.596;2022-11-15T08:59:06;25.77;;;23.45;;
19521;SDS011;9905;52.126;5.596;2022-11-15T09:01:33;25.83;;;23.23;;
19521;SDS011;9905;52.126;5.596;2022-11-15T09:03:59;23.83;;;21.13;;
19521;SDS011;9905;52.126;5.596;2022-11-15T09:06:26;24.17;;;21.85;;
19521;SDS011;9905;52.126;5.596;2022-11-15T09:08:54;23.90;;;21.70;;
19521;SDS011;9905;52.126;5.596;2022-11-15T09:11:21;22.83;;;21.00;;
19521;SDS011;9905;52.126;5.596;2022-11-15T09:13:48;23.35;;;21.25;;
19521;SDS011;9905;52.126;5.596;2022-11-15T09:16:15;22.98;;;20.85;;
19521;SDS011;9905;52.126;5.596;2022-11-15T09:18:42;21.58;;;19.42;;
19521;SDS011;9905;52.126;5.596;2022-11-15T09:21:08;19.45;;;17.83;;
19521;SDS011;9905;52.126;5.596;2022-11-15T09:23:35;19.88;;;18.25;;
19521;SDS011;9905;52.126;5.596;2022-11-15T09:26:04;20.83;;;18.77;;
19521;SDS011;9905;52.126;5.596;2022-11-15T09:28:32;20.35;;;18.65;;
19521;SDS011;9905;52.126;5.596;2022-11-15T09:30:59;19.60;;;17.98;;
19521;SDS011;9905;52.126;5.596;2022-11-15T09:33:27;19.90;;;17.83;;
19521;SDS011;9905;52.126;5.596;2022-11-15T09:35:54;18.70;;;17.00;;
19521;SDS011;9905;52.126;5.596;2022-11-15T09:38:25;22.38;;;16.73;;
19521;SDS011;9905;52.126;5.596;2022-11-15T09:40:53;19.00;;;16.95;;
19521;SDS011;9905;52.126;5.596;2022-11-15T09:43:37;18.38;;;16.77;;
19521;SDS011;9905;52.126;5.596;2022-11-15T09:46:11;18.77;;;16.52;;
19521;SDS011;9905;52.126;5.596;2022-11-15T09:48:44;18.40;;;16.70;;
19521;SDS011;9905;52.126;5.596;2022-11-15T09:51:18;16.80;;;15.30;;
19521;SDS011;9905;52.126;5.596;2022-11-15T09:53:52;18.05;;;16.42;;
19521;SDS011;9905;52.126;5.596;2022-11-15T09:56:26;16.52;;;14.95;;
19521;SDS011;9905;52.126;5.596;2022-11-15T09:58:59;17.60;;;15.63;;
19521;SDS011;9905;52.126;5.596;2022-11-15T10:01:39;15.32;;;13.80;;
19521;SDS011;9905;52.126;5.596;2022-11-15T10:04:10;15.25;;;14.15;;
19521;SDS011;9905;52.126;5.596;2022-11-15T10:06:38;14.88;;;13.77;;
19521;SDS011;9905;52.126;5.596;2022-11-15T10:09:12;14.02;;;12.82;;
19521;SDS011;9905;52.126;5.596;2022-11-15T10:11:41;13.55;;;12.25;;
19521;SDS011;9905;52.126;5.596;2022-11-15T10:14:11;12.00;;;11.00;;
19521;SDS011;9905;52.126;5.596;2022-11-15T10:16:56;11.45;;;10.65;;
19521;SDS011;9905;52.126;5.596;2022-11-15T10:19:42;11.20;;;10.48;;
19521;SDS011;9905;52.126;5.596;2022-11-15T10:22:23;10.43;;;9.73;;
19521;SDS011;9905;52.126;5.596;2022-11-15T10:27:32;10.10;;;9.38;;
19521;SDS011;9905;52.126;5.596;2022-11-15T10:30:01;9.10;;;8.23;;
19521;SDS011;9905;52.126;5.596;2022-11-15T10:32:29;9.98;;;8.93;;
19521;SDS011;9905;52.126;5.596;2022-11-15T10:35:00;8.88;;;8.27;;
19521;SDS011;9905;52.126;5.596;2022-11-15T10:37:43;7.15;;;6.75;;
19521;SDS011;9905;52.126;5.596;2022-11-15T10:40:14;7.40;;;7.00;;
19521;SDS011;9905;52.126;5.596;2022-11-15T10:42:43;7.10;;;6.60;;
19521;SDS011;9905;52.126;5.596;2022-11-15T10:45:24;6.43;;;6.13;;
19521;SDS011;9905;52.126;5.596;2022-11-15T10:47:53;6.10;;;5.85;;
19521;SDS011;9905;52.126;5.596;2022-11-15T10:50:29;6.13;;;5.82;;
19521;SDS011;9905;52.126;5.596;2022-11-15T10:52:57;7.60;;;5.60;;
19521;SDS011;9905;52.126;5.596;2022-11-15T10:55:27;5.80;;;5.57;;
19521;SDS011;9905;52.126;5.596;2022-11-15T10:58:00;6.55;;;6.15;;
19521;SDS011;9905;52.126;5.596;2022-11-15T11:00:32;5.95;;;5.65;;
19521;SDS011;9905;52.126;5.596;2022-11-15T11:03:01;5.93;;;5.65;;
19521;SDS011;9905;52.126;5.596;2022-11-15T11:05:31;6.10;;;5.90;;
19521;SDS011;9905;52.126;5.596;2022-11-15T11:08:00;6.30;;;6.00;;
19521;SDS011;9905;52.126;5.596;2022-11-15T11:10:28;5.97;;;5.60;;
19521;SDS011;9905;52.126;5.596;2022-11-15T11:12:55;6.88;;;6.38;;
19521;SDS011;9905;52.126;5.596;2022-11-15T11:15:39;6.28;;;5.88;;
19521;SDS011;9905;52.126;5.596;2022-11-15T11:18:11;6.25;;;5.70;;
19521;SDS011;9905;52.126;5.596;2022-11-15T11:20:45;6.20;;;5.90;;
19521;SDS011;9905;52.126;5.596;2022-11-15T11:23:19;5.82;;;5.43;;
19521;SDS011;9905;52.126;5.596;2022-11-15T11:26:01;5.95;;;5.55;;
19521;SDS011;9905;52.126;5.596;2022-11-15T11:28:39;5.30;;;4.97;;
19521;SDS011;9905;52.126;5.596;2022-11-15T11:31:15;5.25;;;4.95;;
19521;SDS011;9905;52.126;5.596;2022-11-15T11:33:53;4.78;;;4.57;;
19521;SDS011;9905;52.126;5.596;2022-11-15T11:36:27;4.40;;;4.20;;
19521;SDS011;9905;52.126;5.596;2022-11-15T11:39:09;4.43;;;4.10;;
19521;SDS011;9905;52.126;5.596;2022-11-15T11:41:47;3.97;;;3.78;;
19521;SDS011;9905;52.126;5.596;2022-11-15T11:44:28;4.78;;;3.95;;
19521;SDS011;9905;52.126;5.596;2022-11-15T11:47:01;3.60;;;3.30;;
19521;SDS011;9905;52.126;5.596;2022-11-15T11:49:34;4.10;;;3.80;;
19521;SDS011;9905;52.126;5.596;2022-11-15T11:52:08;3.50;;;3.30;;
19521;SDS011;9905;52.126;5.596;2022-11-15T11:54:40;4.38;;;3.78;;
19521;SDS011;9905;52.126;5.596;2022-11-15T11:57:15;4.35;;;4.15;;
19521;SDS011;9905;52.126;5.596;2022-11-15T11:59:48;3.60;;;3.40;;
19521;SDS011;9905;52.126;5.596;2022-11-15T12:02:27;3.75;;;3.53;;
19521;SDS011;9905;52.126;5.596;2022-11-15T12:05:03;3.35;;;3.20;;
19521;SDS011;9905;52.126;5.596;2022-11-15T12:07:35;3.63;;;3.10;;
19521;SDS011;9905;52.126;5.596;2022-11-15T12:10:11;3.40;;;3.30;;
19521;SDS011;9905;52.126;5.596;2022-11-15T12:12:47;3.45;;;3.22;;
19521;SDS011;9905;52.126;5.596;2022-11-15T12:15:20;3.60;;;3.33;;
19521;SDS011;9905;52.126;5.596;2022-11-15T12:17:51;5.65;;;3.55;;
19521;SDS011;9905;52.126;5.596;2022-11-15T12:20:21;3.95;;;3.70;;
19521;SDS011;9905;52.126;5.596;2022-11-15T12:22:51;3.45;;;3.30;;
19521;SDS011;9905;52.126;5.596;2022-11-15T12:25:21;2.92;;;2.83;;
19521;SDS011;9905;52.126;5.596;2022-11-15T12:27:53;4.30;;;3.28;;
19521;SDS011;9905;52.126;5.596;2022-11-15T12:30:23;3.00;;;2.80;;
19521;SDS011;9905;52.126;5.596;2022-11-15T12:32:54;3.30;;;3.10;;
19521;SDS011;9905;52.126;5.596;2022-11-15T12:35:25;3.78;;;3.58;;
19521;SDS011;9905;52.126;5.596;2022-11-15T12:37:56;3.08;;;2.90;;
19521;SDS011;9905;52.126;5.596;2022-11-15T12:40:26;3.30;;;3.00;;
19521;SDS011;9905;52.126;5.596;2022-11-15T12:42:57;3.25;;;3.05;;
19521;SDS011;9905;52.126;5.596;2022-11-15T12:45:29;2.85;;;2.75;;
19521;SDS011;9905;52.126;5.596;2022-11-15T12:50:59;2.80;;;2.70;;
19521;SDS011;9905;52.126;5.596;2022-11-15T12:53:26;2.80;;;2.70;;
19521;SDS011;9905;52.126;5.596;2022-11-15T12:56:08;3.03;;;2.92;;
19521;SDS011;9905;52.126;5.596;2022-11-15T12:58:44;3.10;;;2.90;;
19521;SDS011;9905;52.126;5.596;2022-11-15T13:04:21;3.38;;;3.17;;
19521;SDS011;9905;52.126;5.596;2022-11-15T13:06:52;3.47;;;3.25;;
19521;SDS011;9905;52.126;5.596;2022-11-15T13:18:32;3.78;;;3.45;;
19521;SDS011;9905;52.126;5.596;2022-11-15T13:21:02;3.08;;;2.90;;
19521;SDS011;9905;52.126;5.596;2022-11-15T13:23:54;3.10;;;2.88;;
19521;SDS011;9905;52.126;5.596;2022-11-15T13:26:21;3.22;;;2.47;;
19521;SDS011;9905;52.126;5.596;2022-11-15T13:28:49;2.95;;;2.85;;
19521;SDS011;9905;52.126;5.596;2022-11-15T13:31:26;2.75;;;2.65;;
19521;SDS011;9905;52.126;5.596;2022-11-15T13:33:56;2.65;;;2.55;;
19521;SDS011;9905;52.126;5.596;2022-11-15T13:36:26;2.70;;;2.60;;
19521;SDS011;9905;52.126;5.596;2022-11-15T13:38:58;3.08;;;2.78;;
19521;SDS011;9905;52.126;5.596;2022-11-15T13:41:27;3.85;;;2.58;;
19521;SDS011;9905;52.126;5.596;2022-11-15T13:43:55;3.00;;;2.90;;
19521;SDS011;9905;52.126;5.596;2022-11-15T13:46:23;2.78;;;2.58;;
19521;SDS011;9905;52.126;5.596;2022-11-15T13:48:53;5.75;;;2.60;;
19521;SDS011;9905;52.126;5.596;2022-11-15T13:51:23;2.78;;;2.55;;
19521;SDS011;9905;52.126;5.596;2022-11-15T13:53:54;7.63;;;3.58;;
19521;SDS011;9905;52.126;5.596;2022-11-15T13:56:24;2.60;;;2.50;;
19521;SDS011;9905;52.126;5.596;2022-11-15T13:58:53;3.20;;;2.60;;
19521;SDS011;9905;52.126;5.596;2022-11-15T14:01:21;2.40;;;2.30;;
19521;SDS011;9905;52.126;5.596;2022-11-15T14:03:53;2.83;;;2.63;;
19521;SDS011;9905;52.126;5.596;2022-11-15T14:06:23;2.70;;;2.50;;
19521;SDS011;9905;52.126;5.596;2022-11-15T14:11:56;2.83;;;2.50;;
19521;SDS011;9905;52.126;5.596;2022-11-15T14:14:24;2.83;;;2.63;;
19521;SDS011;9905;52.126;5.596;2022-11-15T14:16:52;2.97;;;2.80;;
19521;SDS011;9905;52.126;5.596;2022-11-15T14:19:36;2.72;;;2.63;;
19521;SDS011;9905;52.126;5.596;2022-11-15T14:22:08;2.80;;;2.60;;
19521;SDS011;9905;52.126;5.596;2022-11-15T14:24:37;2.58;;;2.47;;
19521;SDS011;9905;52.126;5.596;2022-11-15T14:27:21;2.72;;;2.53;;
19521;SDS011;9905;52.126;5.596;2022-11-15T14:29:49;2.90;;;2.65;;
19521;SDS011;9905;52.126;5.596;2022-11-15T14:32:17;4.00;;;2.55;;
19521;SDS011;9905;52.126;5.596;2022-11-15T14:34:46;2.35;;;2.35;;
19521;SDS011;9905;52.126;5.596;2022-11-15T14:37:18;2.60;;;2.40;;
19521;SDS011;9905;52.126;5.596;2022-11-15T14:39:49;2.22;;;2.22;;
19521;SDS011;9905;52.126;5.596;2022-11-15T14:42:16;2.60;;;2.50;;
19521;SDS011;9905;52.126;5.596;2022-11-15T14:44:43;2.40;;;2.40;;
19521;SDS011;9905;52.126;5.596;2022-11-15T14:47:10;2.58;;;2.40;;
19521;SDS011;9905;52.126;5.596;2022-11-15T14:49:37;2.50;;;2.30;;
19521;SDS011;9905;52.126;5.596;2022-11-15T14:52:07;3.13;;;2.35;;
19521;SDS011;9905;52.126;5.596;2022-11-15T14:54:42;2.42;;;2.33;;
19521;SDS011;9905;52.126;5.596;2022-11-15T14:57:10;2.72;;;2.63;;
19521;SDS011;9905;52.126;5.596;2022-11-15T14:59:37;2.30;;;2.22;;
19521;SDS011;9905;52.126;5.596;2022-11-15T15:02:08;2.40;;;2.33;;
19521;SDS011;9905;52.126;5.596;2022-11-15T15:04:40;2.38;;;2.35;;
19521;SDS011;9905;52.126;5.596;2022-11-15T15:07:07;4.10;;;2.80;;
19521;SDS011;9905;52.126;5.596;2022-11-15T15:09:34;2.25;;;2.15;;
19521;SDS011;9905;52.126;5.596;2022-11-15T15:12:01;2.10;;;2.00;;
19521;SDS011;9905;52.126;5.596;2022-11-15T15:14:29;2.00;;;2.00;;
19521;SDS011;9905;52.126;5.596;2022-11-15T15:16:55;2.38;;;2.30;;
19521;SDS011;9905;52.126;5.596;2022-11-15T15:19:22;2.30;;;2.20;;
19521;SDS011;9905;52.126;5.596;2022-11-15T15:21:49;2.47;;;2.38;;
19521;SDS011;9905;52.126;5.596;2022-11-15T15:24:15;2.70;;;2.60;;